createdAt,value
2019-02-22T00:01:19.213Z,83.50
2019-02-22T00:02:32.064Z,83.50
2019-02-22T00:03:37.089Z,83.50
2019-02-22T00:04:42.112Z,83.40
2019-02-22T00:05:47.175Z,83.50
2019-02-22T00:06:52.200Z,83.50
2019-02-22T00:07:57.301Z,83.50
2019-02-22T00:09:02.410Z,83.50
2019-02-22T00:10:09.511Z,83.70
2019-02-22T00:11:14.626Z,83.40
2019-02-22T00:12:19.725Z,83.40
2019-02-22T00:13:24.889Z,83.40
2019-02-22T00:14:30.020Z,83.40
2019-02-22T00:15:39.581Z,83.40
2019-02-22T00:16:44.708Z,83.40
2019-02-22T00:17:49.808Z,83.40
2019-02-22T00:18:54.925Z,83.40
2019-02-22T00:20:01.121Z,83.40
2019-02-22T00:21:06.321Z,83.40
2019-02-22T00:22:11.432Z,83.40
2019-02-22T00:23:16.538Z,83.50
2019-02-22T00:24:21.696Z,83.50
2019-02-22T00:25:26.892Z,83.50
2019-02-22T00:26:32.024Z,83.50
2019-02-22T00:27:37.132Z,83.50
2019-02-22T00:28:43.078Z,83.70
2019-02-22T00:29:49.397Z,83.70
2019-02-22T00:30:54.476Z,83.70
2019-02-22T00:31:59.519Z,83.80
2019-02-22T00:33:04.602Z,83.80
2019-02-22T00:34:09.624Z,84.20
2019-02-22T00:35:14.850Z,83.90
2019-02-22T00:36:20.062Z,84.00
2019-02-22T00:37:25.337Z,84.20
2019-02-22T00:38:30.344Z,84.50
2019-02-22T00:39:35.364Z,84.50
2019-02-22T00:40:40.496Z,84.70
2019-02-22T00:41:45.639Z,84.80
2019-02-22T00:42:50.751Z,85.00
2019-02-22T00:43:55.845Z,85.20
2019-02-22T00:45:01.160Z,85.20
2019-02-22T00:46:06.475Z,85.40
2019-02-22T00:47:11.612Z,85.60
2019-02-22T00:48:16.752Z,85.80
2019-02-22T00:49:21.872Z,85.90
2019-02-22T00:50:26.983Z,86.10
2019-02-22T00:51:32.190Z,86.20
2019-02-22T00:52:37.304Z,86.20
2019-02-22T00:53:42.337Z,86.30
2019-02-22T00:54:47.369Z,86.30
2019-02-22T00:55:52.387Z,86.30
2019-02-22T00:56:57.527Z,86.30
2019-02-22T00:58:02.640Z,86.30
2019-02-22T00:59:07.745Z,86.20
2019-02-22T01:00:12.978Z,86.10
2019-02-22T01:01:18.120Z,86.10
2019-02-22T01:02:23.157Z,86.00
2019-02-22T01:03:28.242Z,85.90
2019-02-22T01:04:33.371Z,85.80
2019-02-22T01:05:38.391Z,85.70
2019-02-22T01:06:43.541Z,85.70
2019-02-22T01:07:48.680Z,85.70
2019-02-22T01:08:53.790Z,85.50
2019-02-22T01:09:58.818Z,85.50
2019-02-22T01:11:03.880Z,85.50
2019-02-22T01:12:10.065Z,85.40
2019-02-22T01:13:15.216Z,85.30
2019-02-22T01:14:20.314Z,85.20
2019-02-22T01:15:25.340Z,85.20
2019-02-22T01:16:30.385Z,85.20
2019-02-22T01:17:35.425Z,85.20
2019-02-22T01:18:40.585Z,85.10
2019-02-22T01:19:45.682Z,85.00
2019-02-22T01:20:54.469Z,85.00
2019-02-22T01:21:57.663Z,84.90
2019-02-22T01:23:02.780Z,85.00
2019-02-22T01:24:07.904Z,85.00
2019-02-22T01:25:13.071Z,85.00
2019-02-22T01:26:18.174Z,84.90
2019-02-22T01:27:23.285Z,84.90
2019-02-22T01:28:28.422Z,84.90
2019-02-22T01:29:33.553Z,85.20
2019-02-22T01:30:38.677Z,84.80
2019-02-22T01:31:43.840Z,84.80
2019-02-22T01:32:48.953Z,84.80
2019-02-22T01:33:54.333Z,84.90
2019-02-22T01:34:59.684Z,84.90
2019-02-22T01:36:04.794Z,84.90
2019-02-22T01:37:09.918Z,84.80
2019-02-22T01:38:16.004Z,84.80
2019-02-22T01:39:21.085Z,84.80
2019-02-22T01:40:26.180Z,84.80
2019-02-22T01:41:31.297Z,84.90
2019-02-22T01:42:36.409Z,84.80
2019-02-22T01:43:41.448Z,84.80
2019-02-22T01:44:46.546Z,84.80
2019-02-22T01:45:51.732Z,84.80
2019-02-22T01:46:56.772Z,84.70
2019-02-22T01:48:01.803Z,84.70
2019-02-22T01:49:06.816Z,84.70
2019-02-22T01:50:20.450Z,84.70
2019-02-22T01:51:25.485Z,84.70
2019-02-22T01:52:30.533Z,84.70
2019-02-22T01:53:36.001Z,84.70
2019-02-22T01:54:41.148Z,84.70
2019-02-22T01:55:46.250Z,84.70
2019-02-22T01:56:51.360Z,84.70
2019-02-22T01:57:56.413Z,84.80
2019-02-22T01:59:01.641Z,84.80
2019-02-22T02:00:06.948Z,84.90
2019-02-22T02:01:13.672Z,85.00
2019-02-22T02:02:18.777Z,85.20
2019-02-22T02:03:23.871Z,85.30
2019-02-22T02:04:28.976Z,85.40
2019-02-22T02:05:34.149Z,85.50
2019-02-22T02:06:40.737Z,85.50
2019-02-22T02:07:45.818Z,85.70
2019-02-22T02:08:51.960Z,85.70
2019-02-22T02:09:57.089Z,85.80
2019-02-22T02:11:02.213Z,86.20
2019-02-22T02:12:07.647Z,86.00
2019-02-22T02:13:12.679Z,86.10
2019-02-22T02:14:17.820Z,86.20
2019-02-22T02:15:22.948Z,86.00
2019-02-22T02:16:27.985Z,86.30
2019-02-22T02:17:33.133Z,86.40
2019-02-22T02:18:38.260Z,86.40
2019-02-22T02:19:43.428Z,86.60
2019-02-22T02:20:48.601Z,86.90
2019-02-22T02:21:54.725Z,86.70
2019-02-22T02:22:59.806Z,86.80
2019-02-22T02:24:04.944Z,86.90
2019-02-22T02:25:10.341Z,86.90
2019-02-22T02:26:15.454Z,87.00
2019-02-22T02:27:20.546Z,87.00
2019-02-22T02:28:25.676Z,87.20
2019-02-22T02:29:30.733Z,87.10
2019-02-22T02:30:35.952Z,87.20
2019-02-22T02:31:41.051Z,87.20
2019-02-22T02:32:46.160Z,87.20
2019-02-22T02:33:51.287Z,87.30
2019-02-22T02:34:56.425Z,87.40
2019-02-22T02:36:01.553Z,87.30
2019-02-22T02:37:06.688Z,87.40
2019-02-22T02:38:12.759Z,87.50
2019-02-22T02:39:17.851Z,87.50
2019-02-22T02:40:22.890Z,87.70
2019-02-22T02:41:28.191Z,87.70
2019-02-22T02:42:33.371Z,87.70
2019-02-22T02:43:38.611Z,87.80
2019-02-22T02:44:43.789Z,87.70
2019-02-22T02:45:48.906Z,87.70
2019-02-22T02:46:55.661Z,87.70
2019-02-22T02:48:00.785Z,87.70
2019-02-22T02:49:05.941Z,87.60
2019-02-22T02:50:15.985Z,87.60
2019-02-22T02:51:21.111Z,87.60
2019-02-22T02:52:26.213Z,87.60
2019-02-22T02:53:31.331Z,87.60
2019-02-22T02:54:36.468Z,87.60
2019-02-22T02:55:41.646Z,87.60
2019-02-22T02:56:46.820Z,87.60
2019-02-22T02:57:51.930Z,87.60
2019-02-22T02:58:57.057Z,87.60
2019-02-22T03:00:02.173Z,87.60
2019-02-22T03:01:07.465Z,87.60
2019-02-22T03:02:19.516Z,87.70
2019-02-22T03:03:24.607Z,87.90
2019-02-22T03:04:29.722Z,87.90
2019-02-22T03:05:57.077Z,87.90
2019-02-22T03:07:15.579Z,87.90
2019-02-22T03:08:22.342Z,87.90
2019-02-22T03:09:27.449Z,88.00
2019-02-22T03:10:32.545Z,88.00
2019-02-22T03:11:40.537Z,88.10
2019-02-22T03:12:46.773Z,88.10
2019-02-22T03:13:51.905Z,88.10
2019-02-22T03:14:56.944Z,88.10
2019-02-22T03:16:03.158Z,88.20
2019-02-22T03:17:08.256Z,88.10
2019-02-22T03:18:13.266Z,88.20
2019-02-22T03:19:18.290Z,88.50
2019-02-22T03:20:23.386Z,88.20
2019-02-22T03:21:28.598Z,88.20
2019-02-22T03:22:33.707Z,88.20
2019-02-22T03:23:38.879Z,88.10
2019-02-22T03:24:44.019Z,88.10
2019-02-22T03:25:49.165Z,88.10
2019-02-22T03:26:54.226Z,88.20
2019-02-22T03:28:00.322Z,88.20
2019-02-22T03:29:05.328Z,88.20
2019-02-22T03:30:10.610Z,88.50
2019-02-22T03:31:16.882Z,88.30
2019-02-22T03:32:21.977Z,88.30
2019-02-22T03:33:27.007Z,88.40
2019-02-22T03:34:32.247Z,88.30
2019-02-22T03:35:38.458Z,88.40
2019-02-22T03:36:43.585Z,88.40
2019-02-22T03:37:48.693Z,88.40
2019-02-22T03:38:53.802Z,88.40
2019-02-22T03:39:58.911Z,88.50
2019-02-22T03:41:04.012Z,88.50
2019-02-22T03:42:09.120Z,88.50
2019-02-22T03:43:14.175Z,88.60
2019-02-22T03:44:19.285Z,88.70
2019-02-22T03:45:24.284Z,88.60
2019-02-22T03:46:29.398Z,88.60
2019-02-22T03:47:35.465Z,88.70
2019-02-22T03:48:42.460Z,88.70
2019-02-22T03:49:47.593Z,88.70
2019-02-22T03:50:52.716Z,88.80
2019-02-22T03:51:58.587Z,88.90
2019-02-22T03:53:19.283Z,89.00
2019-02-22T03:54:24.339Z,89.10
2019-02-22T03:55:29.348Z,89.10
2019-02-22T03:56:34.555Z,89.30
2019-02-22T03:57:39.730Z,89.40
2019-02-22T03:58:44.837Z,89.40
2019-02-22T03:59:51.232Z,89.60
2019-02-22T04:00:56.519Z,89.70
2019-02-22T04:02:01.715Z,89.80
2019-02-22T04:03:06.811Z,89.80
2019-02-22T04:04:11.985Z,89.90
2019-02-22T04:05:17.126Z,90.00
2019-02-22T04:06:22.222Z,90.00
2019-02-22T04:07:28.401Z,90.00
2019-02-22T04:08:33.438Z,90.00
2019-02-22T04:09:38.613Z,90.10
2019-02-22T04:10:43.733Z,90.20
2019-02-22T04:11:48.857Z,90.30
2019-02-22T04:12:57.250Z,90.30
2019-02-22T04:14:03.421Z,90.30
2019-02-22T04:15:08.728Z,90.40
2019-02-22T04:16:13.733Z,90.50
2019-02-22T04:17:18.853Z,90.50
2019-02-22T04:18:23.904Z,90.60
2019-02-22T04:19:28.923Z,90.70
2019-02-22T04:20:33.934Z,90.70
2019-02-22T04:21:39.072Z,90.70
2019-02-22T04:22:44.635Z,90.80
2019-02-22T04:23:49.892Z,90.80
2019-02-22T04:24:54.986Z,90.90
2019-02-22T04:26:00.115Z,90.90
2019-02-22T04:27:05.208Z,91.00
2019-02-22T04:28:10.322Z,91.10
2019-02-22T04:29:16.506Z,91.20
2019-02-22T04:30:21.518Z,91.20
2019-02-22T04:31:26.618Z,91.30
2019-02-22T04:32:31.719Z,91.40
2019-02-22T04:33:36.810Z,91.40
2019-02-22T04:34:42.241Z,91.40
2019-02-22T04:35:47.289Z,91.50
2019-02-22T04:36:52.401Z,91.50
2019-02-22T04:37:57.525Z,91.60
2019-02-22T04:39:02.970Z,91.60
2019-02-22T04:40:09.969Z,91.80
2019-02-22T04:41:14.985Z,91.90
2019-02-22T04:42:20.079Z,91.90
2019-02-22T04:43:25.142Z,92.10
2019-02-22T04:44:30.192Z,92.20
2019-02-22T04:45:35.316Z,92.20
2019-02-22T04:46:40.440Z,92.20
2019-02-22T04:47:45.586Z,92.20
2019-02-22T04:48:50.688Z,92.30
2019-02-22T04:49:55.729Z,92.30
2019-02-22T04:51:00.768Z,92.40
2019-02-22T04:52:05.898Z,92.50
2019-02-22T04:53:10.991Z,92.40
2019-02-22T04:54:16.080Z,92.50
2019-02-22T04:55:21.249Z,92.50
2019-02-22T04:56:26.352Z,92.40
2019-02-22T04:57:31.457Z,92.40
2019-02-22T04:58:36.547Z,92.50
2019-02-22T04:59:41.758Z,92.40
2019-02-22T05:00:46.812Z,92.40
2019-02-22T05:01:51.976Z,92.40
2019-02-22T05:02:57.076Z,92.30
2019-02-22T05:04:02.202Z,92.30
2019-02-22T05:05:07.448Z,92.30
2019-02-22T05:06:12.467Z,92.30
2019-02-22T05:07:17.592Z,92.20
2019-02-22T05:08:22.748Z,92.20
2019-02-22T05:09:27.957Z,92.20
2019-02-22T05:10:33.097Z,92.20
2019-02-22T05:11:38.195Z,92.30
2019-02-22T05:12:43.468Z,92.30
2019-02-22T05:13:48.592Z,92.40
2019-02-22T05:14:53.714Z,92.20
2019-02-22T05:15:58.808Z,92.10
2019-02-22T05:17:03.904Z,92.10
2019-02-22T05:18:09.027Z,92.10
2019-02-22T05:19:15.103Z,92.10
2019-02-22T05:20:20.249Z,92.10
2019-02-22T05:21:25.320Z,92.10
2019-02-22T05:22:30.440Z,92.20
2019-02-22T05:23:35.494Z,92.30
2019-02-22T05:24:40.525Z,92.30
2019-02-22T05:25:45.564Z,92.30
2019-02-22T05:26:50.603Z,92.30
2019-02-22T05:27:55.647Z,92.40
2019-02-22T05:29:00.728Z,92.40
2019-02-22T05:30:07.100Z,92.40
2019-02-22T05:31:12.170Z,92.50
2019-02-22T05:32:17.286Z,92.50
2019-02-22T05:33:22.568Z,92.50
2019-02-22T05:34:27.682Z,92.60
2019-02-22T05:35:32.792Z,92.60
2019-02-22T05:36:37.909Z,92.60
2019-02-22T05:37:43.110Z,92.60
2019-02-22T05:38:48.257Z,92.60
2019-02-22T05:39:54.443Z,92.70
2019-02-22T05:40:59.577Z,92.70
2019-02-22T05:42:04.702Z,92.80
2019-02-22T05:43:09.843Z,92.90
2019-02-22T05:44:14.912Z,93.00
2019-02-22T05:45:20.068Z,93.10
2019-02-22T05:46:25.116Z,93.10
2019-02-22T05:47:30.248Z,93.20
2019-02-22T05:48:35.352Z,93.20
2019-02-22T05:49:42.586Z,93.40
2019-02-22T05:50:47.658Z,93.50
2019-02-22T05:51:52.871Z,93.50
2019-02-22T05:52:57.968Z,93.50
2019-02-22T05:54:03.096Z,93.70
2019-02-22T05:55:08.250Z,93.80
2019-02-22T05:56:13.343Z,94.00
2019-02-22T05:57:18.816Z,94.10
2019-02-22T05:58:23.924Z,94.20
2019-02-22T05:59:29.052Z,94.40
2019-02-22T06:00:34.201Z,94.50
2019-02-22T06:01:39.309Z,94.70
2019-02-22T06:02:44.344Z,94.70
2019-02-22T06:03:49.836Z,94.80
2019-02-22T06:04:54.936Z,94.90
2019-02-22T06:05:59.993Z,95.10
2019-02-22T06:07:05.044Z,95.20
2019-02-22T06:08:10.063Z,95.30
2019-02-22T06:09:15.183Z,95.50
2019-02-22T06:10:20.297Z,95.60
2019-02-22T06:11:26.406Z,95.70
2019-02-22T06:12:34.483Z,95.70
2019-02-22T06:13:38.350Z,95.80
2019-02-22T06:14:43.384Z,95.80
2019-02-22T06:15:48.509Z,95.80
2019-02-22T06:16:53.754Z,95.80
2019-02-22T06:17:58.885Z,95.80
2019-02-22T06:19:03.975Z,95.90
2019-02-22T06:20:09.195Z,96.00
2019-02-22T06:21:15.322Z,95.90
2019-02-22T06:22:29.079Z,95.90
2019-02-22T06:23:27.574Z,96.10
2019-02-22T06:24:32.681Z,96.10
2019-02-22T06:25:37.821Z,96.20
2019-02-22T06:26:42.909Z,96.30
2019-02-22T06:27:48.230Z,96.30
2019-02-22T06:28:53.325Z,96.30
2019-02-22T06:29:58.437Z,96.30
2019-02-22T06:31:03.529Z,96.30
2019-02-22T06:32:08.643Z,96.20
2019-02-22T06:33:13.772Z,96.30
2019-02-22T06:34:18.785Z,96.30
2019-02-22T06:35:23.857Z,96.30
2019-02-22T06:36:29.219Z,96.20
2019-02-22T06:37:34.333Z,96.10
2019-02-22T06:38:39.480Z,96.20
2019-02-22T06:39:44.581Z,96.20
2019-02-22T06:40:49.688Z,96.20
2019-02-22T06:41:54.759Z,96.20
2019-02-22T06:42:59.857Z,96.20
2019-02-22T06:44:04.916Z,96.30
2019-02-22T06:45:09.984Z,96.40
2019-02-22T06:46:15.152Z,96.30
2019-02-22T06:47:22.777Z,96.30
2019-02-22T06:48:27.133Z,96.40
2019-02-22T06:49:32.267Z,96.40
2019-02-22T06:50:37.369Z,96.40
2019-02-22T06:51:42.412Z,96.40
2019-02-22T06:52:47.450Z,96.50
2019-02-22T06:53:52.519Z,96.40
2019-02-22T06:54:57.701Z,96.30
2019-02-22T06:56:02.805Z,96.40
2019-02-22T06:57:07.849Z,96.40
2019-02-22T06:58:13.016Z,96.50
2019-02-22T06:59:19.298Z,96.60
2019-02-22T07:00:24.616Z,96.60
2019-02-22T07:01:29.671Z,96.60
2019-02-22T07:02:34.773Z,96.60
2019-02-22T07:03:40.092Z,96.40
2019-02-22T07:04:45.218Z,96.30
2019-02-22T07:05:50.305Z,96.40
2019-02-22T07:06:55.332Z,96.50
2019-02-22T07:08:00.429Z,96.40
2019-02-22T07:09:06.768Z,96.40
2019-02-22T07:10:11.948Z,96.40
2019-02-22T07:11:24.410Z,96.30
2019-02-22T07:12:41.957Z,96.30
2019-02-22T07:13:47.048Z,96.30
2019-02-22T07:14:52.167Z,96.30
2019-02-22T07:15:57.262Z,96.30
2019-02-22T07:17:02.422Z,96.20
2019-02-22T07:18:07.932Z,96.20
2019-02-22T07:19:13.045Z,96.10
2019-02-22T07:20:18.160Z,96.10
2019-02-22T07:21:23.188Z,96.00
2019-02-22T07:22:28.376Z,96.00
2019-02-22T07:23:33.512Z,96.00
2019-02-22T07:24:38.658Z,95.90
2019-02-22T07:25:43.824Z,95.90
2019-02-22T07:26:48.924Z,95.80
2019-02-22T07:27:54.044Z,95.80
2019-02-22T07:28:59.064Z,95.80
2019-02-22T07:30:04.670Z,95.80
2019-02-22T07:31:09.906Z,95.70
2019-02-22T07:32:14.993Z,95.70
2019-02-22T07:33:20.130Z,95.70
2019-02-22T07:34:25.233Z,95.70
2019-02-22T07:35:31.508Z,95.60
2019-02-22T07:36:36.605Z,95.60
2019-02-22T07:37:41.687Z,95.60
2019-02-22T07:38:46.916Z,95.60
2019-02-22T07:39:52.066Z,95.50
2019-02-22T07:40:57.197Z,95.60
2019-02-22T07:42:02.286Z,95.60
2019-02-22T07:43:08.325Z,95.60
2019-02-22T07:44:13.608Z,95.50
2019-02-22T07:45:18.724Z,95.40
2019-02-22T07:46:23.793Z,95.30
2019-02-22T07:47:29.351Z,95.20
2019-02-22T07:48:34.501Z,95.20
2019-02-22T07:49:39.925Z,95.20
2019-02-22T07:50:56.592Z,95.30
2019-02-22T07:51:51.877Z,95.10
2019-02-22T07:52:57.011Z,95.00
2019-02-22T07:54:02.150Z,95.00
2019-02-22T07:55:08.001Z,95.00
2019-02-22T07:56:13.234Z,94.90
2019-02-22T07:57:18.353Z,94.90
2019-02-22T07:58:24.544Z,94.90
2019-02-22T07:59:29.640Z,94.90
2019-02-22T08:00:34.783Z,94.90
2019-02-22T08:01:47.379Z,94.80
2019-02-22T08:02:46.642Z,94.80
2019-02-22T08:03:51.706Z,94.70
2019-02-22T08:04:56.736Z,94.60
2019-02-22T08:06:02.948Z,94.60
2019-02-22T08:07:08.063Z,94.50
2019-02-22T08:08:13.177Z,94.50
2019-02-22T08:09:18.212Z,94.40
2019-02-22T08:10:26.095Z,94.30
2019-02-22T08:11:30.185Z,94.30
2019-02-22T08:12:35.219Z,94.20
2019-02-22T08:13:40.332Z,94.10
2019-02-22T08:14:45.452Z,94.10
2019-02-22T08:15:50.508Z,94.10
2019-02-22T08:16:55.652Z,93.90
2019-02-22T08:21:17.417Z,93.60
2019-02-22T08:22:22.540Z,93.40
2019-02-22T08:23:27.650Z,93.40
2019-02-22T08:24:32.764Z,93.30
2019-02-22T08:25:38.247Z,93.10
2019-02-22T08:26:43.377Z,93.00
2019-02-22T08:27:53.483Z,92.70
2019-02-22T08:28:55.384Z,92.50
2019-02-22T08:30:01.473Z,92.40
2019-02-22T08:31:06.855Z,92.10
2019-02-22T08:32:12.009Z,92.10
2019-02-22T08:33:17.111Z,91.70
2019-02-22T08:34:22.244Z,91.60
2019-02-22T08:35:27.376Z,91.30
2019-02-22T08:36:32.473Z,91.00
2019-02-22T08:37:37.529Z,90.70
2019-02-22T08:38:42.663Z,90.70
2019-02-22T08:39:58.243Z,90.50
2019-02-22T08:40:54.571Z,90.10
2019-02-22T08:41:59.639Z,88.40
2019-02-22T08:43:04.761Z,87.00
2019-02-22T08:44:09.807Z,86.00
2019-02-22T08:45:14.928Z,85.60
2019-02-22T08:46:20.077Z,84.80
2019-02-22T08:47:25.250Z,84.60
2019-02-22T08:48:30.367Z,84.40
2019-02-22T08:49:35.468Z,84.20
2019-02-22T08:50:40.569Z,84.20
2019-02-22T08:51:45.733Z,83.80
2019-02-22T08:52:50.929Z,83.50
2019-02-22T08:53:56.121Z,83.00
2019-02-22T08:55:01.286Z,82.70
2019-02-22T08:56:06.506Z,82.60
2019-02-22T08:57:11.722Z,82.60
2019-02-22T08:58:16.900Z,82.70
2019-02-22T08:59:22.097Z,82.90
2019-02-22T09:00:27.287Z,83.00
2019-02-22T09:01:32.471Z,82.90
2019-02-22T09:02:37.735Z,82.60
2019-02-22T09:03:50.704Z,82.70
2019-02-22T09:04:49.777Z,82.50
2019-02-22T09:05:54.949Z,82.50
2019-02-22T09:07:00.157Z,82.50
2019-02-22T09:08:05.407Z,82.70
2019-02-22T09:09:10.508Z,82.70
2019-02-22T09:10:15.703Z,82.80
2019-02-22T09:11:20.864Z,82.90
2019-02-22T09:12:26.040Z,83.00
2019-02-22T09:13:42.847Z,83.10
2019-02-22T09:14:37.882Z,83.00
2019-02-22T09:15:42.984Z,83.40
2019-02-22T09:16:48.089Z,82.70
2019-02-22T09:17:55.308Z,82.40
2019-02-22T09:18:59.992Z,82.50
2019-02-22T09:20:05.262Z,82.20
2019-02-22T09:21:12.033Z,81.50
2019-02-22T09:22:22.942Z,80.90
2019-02-22T09:23:24.000Z,80.70
2019-02-22T09:24:29.121Z,80.20
2019-02-22T09:25:34.285Z,80.00
2019-02-22T09:26:39.440Z,79.70
2019-02-22T09:27:44.545Z,79.50
2019-02-22T09:28:49.677Z,79.40
2019-02-22T09:29:58.852Z,79.30
2019-02-22T09:31:02.581Z,79.20
2019-02-22T09:32:07.733Z,78.90
2019-02-22T09:33:12.858Z,78.80
2019-02-22T09:34:18.006Z,78.80
2019-02-22T09:35:23.469Z,78.50
2019-02-22T09:36:28.604Z,78.50
2019-02-22T09:37:33.776Z,78.60
2019-02-22T09:38:39.020Z,78.50
2019-02-22T09:39:44.135Z,78.30
2019-02-22T09:40:49.284Z,77.90
2019-02-22T09:41:54.412Z,77.80
2019-02-22T09:42:59.545Z,77.40
2019-02-22T09:44:04.683Z,77.10
2019-02-22T09:45:10.562Z,76.90
2019-02-22T09:46:15.610Z,76.80
2019-02-22T09:47:20.733Z,76.00
2019-02-22T09:48:25.781Z,76.00
2019-02-22T09:49:30.883Z,75.60
2019-02-22T09:50:36.004Z,75.30
2019-02-22T09:51:41.382Z,75.20
2019-02-22T09:52:46.609Z,74.80
2019-02-22T09:53:51.745Z,74.90
2019-02-22T09:54:56.864Z,74.90
2019-02-22T09:56:01.988Z,74.60
2019-02-22T09:57:07.455Z,74.60
2019-02-22T09:58:12.577Z,74.60
2019-02-22T09:59:17.629Z,75.20
2019-02-22T10:00:22.762Z,75.30
2019-02-22T10:01:27.896Z,75.20
2019-02-22T10:02:32.924Z,75.20
2019-02-22T10:03:38.065Z,75.30
2019-02-22T10:04:54.262Z,75.00
2019-02-22T10:05:50.021Z,74.80
2019-02-22T10:06:55.045Z,74.80
2019-02-22T10:08:00.112Z,74.80
2019-02-22T10:09:05.641Z,74.50
2019-02-22T10:10:12.408Z,74.10
2019-02-22T10:11:17.529Z,74.00
2019-02-22T10:12:22.683Z,74.00
2019-02-22T10:13:27.814Z,74.40
2019-02-22T10:14:32.920Z,74.30
2019-02-22T10:15:38.039Z,74.30
2019-02-22T10:16:43.179Z,73.80
2019-02-22T10:17:48.249Z,73.50
2019-02-22T10:18:53.386Z,72.70
2019-02-22T10:19:58.481Z,71.50
2019-02-22T10:21:03.588Z,70.80
2019-02-22T10:22:08.636Z,70.50
2019-02-22T10:23:13.830Z,70.10
2019-02-22T10:24:20.011Z,70.60
2019-02-22T10:25:25.141Z,71.00
2019-02-22T10:26:30.198Z,70.20
2019-02-22T10:27:35.358Z,70.10
2019-02-22T10:28:40.476Z,69.20
2019-02-22T10:29:45.610Z,68.80
2019-02-22T10:30:50.721Z,68.90
2019-02-22T10:31:55.852Z,68.80
2019-02-22T10:33:01.011Z,69.30
2019-02-22T10:34:06.131Z,69.50
2019-02-22T10:35:12.389Z,70.30
2019-02-22T10:36:17.516Z,70.70
2019-02-22T10:37:22.638Z,71.00
2019-02-22T10:38:28.045Z,70.70
2019-02-22T10:39:33.220Z,70.80
2019-02-22T10:40:39.341Z,70.30
2019-02-22T10:41:44.669Z,70.50
2019-02-22T10:42:49.779Z,70.20
2019-02-22T10:43:54.904Z,70.30
2019-02-22T10:45:00.033Z,69.60
2019-02-22T10:46:05.163Z,69.20
2019-02-22T10:47:10.310Z,69.60
2019-02-22T10:48:15.428Z,69.00
2019-02-22T10:49:20.518Z,69.10
2019-02-22T10:50:25.541Z,69.60
2019-02-22T10:51:30.617Z,70.40
2019-02-22T10:52:35.742Z,70.10
2019-02-22T10:53:41.169Z,70.20
2019-02-22T10:54:46.443Z,70.30
2019-02-22T10:55:51.524Z,69.30
2019-02-22T10:56:56.663Z,69.00
2019-02-22T10:58:01.787Z,69.30
2019-02-22T10:59:06.925Z,69.00
2019-02-22T11:00:12.800Z,69.30
2019-02-22T11:01:18.001Z,69.40
2019-02-22T11:02:23.069Z,69.30
2019-02-22T11:03:28.175Z,69.00
2019-02-22T11:04:33.303Z,69.50
2019-02-22T11:05:38.439Z,70.00
2019-02-22T11:06:43.567Z,69.70
2019-02-22T11:07:48.706Z,69.00
2019-02-22T11:08:53.889Z,67.60
2019-02-22T11:09:59.048Z,68.00
2019-02-22T11:11:04.230Z,67.20
2019-02-22T11:12:09.261Z,67.10
2019-02-22T11:13:15.474Z,66.80
2019-02-22T11:14:28.713Z,66.20
2019-02-22T11:15:28.520Z,66.40
2019-02-22T11:16:33.641Z,66.50
2019-02-22T11:17:39.746Z,66.90
2019-02-22T11:18:44.899Z,67.20
2019-02-22T11:19:50.050Z,67.10
2019-02-22T11:20:55.166Z,66.90
2019-02-22T11:22:00.301Z,66.70
2019-02-22T11:23:05.450Z,67.00
2019-02-22T11:24:10.631Z,67.10
2019-02-22T11:25:15.752Z,67.40
2019-02-22T11:26:21.775Z,67.50
2019-02-22T11:27:26.912Z,67.60
2019-02-22T11:28:32.039Z,68.10
2019-02-22T11:29:37.149Z,68.80
2019-02-22T11:30:42.249Z,69.00
2019-02-22T11:31:47.375Z,67.90
2019-02-22T11:32:52.469Z,68.20
2019-02-22T11:33:57.582Z,68.10
2019-02-22T11:35:02.711Z,68.20
2019-02-22T11:36:08.997Z,68.60
2019-02-22T11:37:14.099Z,69.10
2019-02-22T11:38:19.269Z,69.40
2019-02-22T11:39:24.452Z,69.60
2019-02-22T11:40:29.739Z,69.50
2019-02-22T11:41:34.857Z,69.80
2019-02-22T11:42:39.971Z,70.20
2019-02-22T11:43:45.113Z,68.70
2019-02-22T11:44:50.333Z,67.80
2019-02-22T11:45:55.440Z,67.50
2019-02-22T11:47:00.570Z,67.00
2019-02-22T11:48:09.078Z,66.30
2019-02-22T11:49:12.508Z,66.50
2019-02-22T11:50:17.704Z,66.60
2019-02-22T11:51:22.761Z,66.80
2019-02-22T11:52:27.994Z,66.40
2019-02-22T11:53:33.150Z,66.20
2019-02-22T11:54:38.325Z,66.40
2019-02-22T11:55:43.537Z,65.90
2019-02-22T11:56:48.664Z,65.50
2019-02-22T11:57:53.790Z,64.50
2019-02-22T11:58:58.916Z,64.20
2019-02-22T12:00:05.584Z,64.40
2019-02-22T12:01:11.060Z,64.20
2019-02-22T12:02:16.227Z,64.30
2019-02-22T12:03:24.547Z,64.10
2019-02-22T12:04:28.151Z,63.00
2019-02-22T12:05:33.360Z,62.90
2019-02-22T12:06:38.491Z,62.90
2019-02-22T12:07:43.619Z,62.70
2019-02-22T12:08:48.723Z,62.70
2019-02-22T12:09:53.829Z,62.30
2019-02-22T12:10:58.973Z,62.00
2019-02-22T12:12:04.076Z,61.60
2019-02-22T12:13:09.314Z,61.10
2019-02-22T12:14:14.538Z,60.90
2019-02-22T12:15:19.718Z,60.60
2019-02-22T12:16:24.886Z,60.50
2019-02-22T12:17:30.020Z,60.30
2019-02-22T12:18:36.615Z,59.90
2019-02-22T12:19:42.000Z,59.60
2019-02-22T12:20:47.047Z,59.80
2019-02-22T12:21:52.175Z,59.60
2019-02-22T12:22:57.343Z,58.10
2019-02-22T12:24:02.370Z,57.60
2019-02-22T12:25:08.038Z,57.80
2019-02-22T12:26:13.145Z,57.00
2019-02-22T12:27:18.200Z,56.80
2019-02-22T12:28:23.238Z,57.10
2019-02-22T12:29:28.356Z,56.50
2019-02-22T12:30:33.476Z,55.60
2019-02-22T12:31:38.570Z,55.90
2019-02-22T12:32:43.592Z,56.00
2019-02-22T12:33:48.720Z,56.60
2019-02-22T12:34:53.865Z,57.10
2019-02-22T12:35:58.986Z,57.40
2019-02-22T12:37:04.308Z,57.50
2019-02-22T12:38:09.457Z,58.10
2019-02-22T12:39:14.606Z,58.90
2019-02-22T12:40:20.122Z,59.40
2019-02-22T12:41:25.360Z,59.50
2019-02-22T12:42:30.486Z,59.20
2019-02-22T12:43:35.743Z,60.00
2019-02-22T12:44:40.828Z,59.70
2019-02-22T12:45:45.959Z,60.00
2019-02-22T12:46:51.091Z,60.20
2019-02-22T12:47:56.253Z,60.30
2019-02-22T12:49:01.453Z,60.70
2019-02-22T12:50:07.263Z,60.80
2019-02-22T12:51:13.383Z,61.20
2019-02-22T12:52:18.487Z,61.90
2019-02-22T12:53:23.618Z,62.40
2019-02-22T12:54:28.722Z,62.70
2019-02-22T12:55:33.846Z,63.20
2019-02-22T12:56:56.670Z,63.50
2019-02-22T12:57:45.806Z,63.50
2019-02-22T12:58:50.914Z,63.90
2019-02-22T12:59:56.092Z,64.30
2019-02-22T13:01:01.247Z,64.40
2019-02-22T13:02:06.570Z,64.10
2019-02-22T13:03:11.741Z,64.10
2019-02-22T13:04:16.863Z,64.00
2019-02-22T13:05:22.164Z,63.90
2019-02-22T13:06:27.358Z,63.20
2019-02-22T13:07:32.566Z,63.50
2019-02-22T13:08:37.654Z,63.40
2019-02-22T13:09:42.760Z,63.10
2019-02-22T13:10:47.874Z,63.20
2019-02-22T13:11:52.998Z,63.50
2019-02-22T13:12:58.150Z,63.50
2019-02-22T13:14:03.280Z,63.30
2019-02-22T13:15:14.044Z,63.30
2019-02-22T13:16:16.905Z,63.40
2019-02-22T13:17:30.441Z,63.30
2019-02-22T13:18:28.866Z,63.30
2019-02-22T13:19:33.975Z,63.50
2019-02-22T13:20:39.140Z,63.80
2019-02-22T13:21:44.300Z,63.80
2019-02-22T13:22:49.417Z,63.60
2019-02-22T13:23:57.203Z,63.60
2019-02-22T13:25:01.384Z,63.30
2019-02-22T13:26:06.564Z,62.70
2019-02-22T13:27:11.686Z,62.30
2019-02-22T13:28:16.828Z,61.90
2019-02-22T13:29:22.009Z,62.00
2019-02-22T13:30:27.145Z,61.70
2019-02-22T13:31:32.320Z,61.60
2019-02-22T13:32:37.445Z,61.90
2019-02-22T13:33:42.610Z,61.80
2019-02-22T13:34:47.985Z,61.50
2019-02-22T13:35:53.323Z,61.90
2019-02-22T13:36:58.415Z,61.40
2019-02-22T13:38:03.593Z,61.10
2019-02-22T13:39:09.902Z,61.40
2019-02-22T13:40:15.296Z,61.70
2019-02-22T13:41:20.437Z,61.80
2019-02-22T13:42:25.573Z,61.70
2019-02-22T13:43:30.787Z,61.70
2019-02-22T13:44:35.909Z,61.20
2019-02-22T13:45:41.034Z,60.80
2019-02-22T13:46:46.198Z,61.30
2019-02-22T13:47:51.339Z,60.80
2019-02-22T13:48:56.474Z,60.70
2019-02-22T13:50:01.633Z,60.50
2019-02-22T13:51:07.631Z,60.20
2019-02-22T13:52:12.749Z,60.40
2019-02-22T13:53:17.858Z,59.90
2019-02-22T13:54:22.971Z,59.80
2019-02-22T13:55:28.115Z,59.80
2019-02-22T13:56:33.282Z,60.00
2019-02-22T13:57:38.425Z,60.00
2019-02-22T13:58:43.634Z,59.70
2019-02-22T13:59:48.765Z,59.40
2019-02-22T14:00:53.914Z,58.90
2019-02-22T14:01:59.035Z,58.40
2019-02-22T14:03:05.058Z,58.60
2019-02-22T14:04:10.591Z,58.70
2019-02-22T14:05:15.725Z,58.80
2019-02-22T14:06:21.008Z,58.90